createdAt,value
2023-03-15T00:00:12.605Z,99273.69
2023-03-15T00:03:04.325Z,99276.68
2023-03-15T00:05:32.705Z,99284.04
2023-03-15T00:08:04.303Z,99288.33
2023-03-15T00:10:32.875Z,99291.41
2023-03-15T00:13:01.199Z,99296.80
2023-03-15T00:15:29.691Z,99299.34
2023-03-15T00:17:58.075Z,99310.67
2023-03-15T00:20:26.516Z,99315.63
2023-03-15T00:22:54.943Z,99319.52
2023-03-15T00:25:23.312Z,99323.59
2023-03-15T00:27:51.633Z,99321.98
2023-03-15T00:30:20.024Z,99325.30
2023-03-15T00:32:48.489Z,99334.13
2023-03-15T00:35:18.475Z,99343.15
2023-03-15T00:37:46.850Z,99353.52
2023-03-15T00:40:15.814Z,99361.66
2023-03-15T00:42:50.350Z,99362.55
2023-03-15T00:45:21.880Z,99369.88
2023-03-15T00:47:54.986Z,99370.14
2023-03-15T00:50:23.961Z,99380.90
2023-03-15T00:52:52.287Z,99375.92
2023-03-15T00:55:21.848Z,99378.40
2023-03-15T00:57:50.282Z,99377.05
2023-03-15T01:00:25.038Z,99384.30
2023-03-15T01:02:54.638Z,99385.91
2023-03-15T01:05:23.236Z,99376.64
2023-03-15T01:07:52.524Z,99375.98
2023-03-15T01:10:20.927Z,99380.73
2023-03-15T01:12:49.240Z,99384.43
2023-03-15T01:15:17.579Z,99398.61
2023-03-15T01:17:46.109Z,99394.30
2023-03-15T01:20:15.519Z,99406.88
2023-03-15T01:22:43.966Z,99407.91
2023-03-15T01:25:12.345Z,99414.31
2023-03-15T01:27:40.655Z,99421.09
2023-03-15T01:30:09.911Z,99428.00
2023-03-15T01:32:38.339Z,99430.08
2023-03-15T01:35:07.721Z,99430.72
2023-03-15T01:37:36.194Z,99430.33
2023-03-15T01:40:06.743Z,99430.66
2023-03-15T01:43:04.715Z,99433.07
2023-03-15T01:46:25.036Z,99437.04
2023-03-15T01:49:14.803Z,99440.15
2023-03-15T01:52:09.371Z,99452.30
2023-03-15T01:54:56.890Z,99461.52
2023-03-15T01:57:36.415Z,99469.23
2023-03-15T02:00:12.203Z,99471.71
2023-03-15T02:02:51.904Z,99468.33
2023-03-15T02:05:35.707Z,99466.91
2023-03-15T02:08:08.792Z,99468.94
2023-03-15T02:10:48.131Z,99474.55
2023-03-15T02:13:22.844Z,99485.72
2023-03-15T02:15:53.698Z,99492.21
2023-03-15T02:18:22.913Z,99499.00
2023-03-15T02:21:29.553Z,99500.29
2023-03-15T02:24:02.296Z,99498.45
2023-03-15T02:26:37.342Z,99496.62
2023-03-15T02:29:05.790Z,99501.68
2023-03-15T02:31:38.226Z,99501.73
2023-03-15T02:34:08.370Z,99504.34
2023-03-15T02:36:37.474Z,99512.11
2023-03-15T02:39:21.774Z,99522.69
2023-03-15T02:41:57.362Z,99530.12
2023-03-15T02:44:34.140Z,99532.02
2023-03-15T02:47:08.506Z,99538.08
2023-03-15T02:49:44.920Z,99537.29
2023-03-15T02:52:14.144Z,99540.09
2023-03-15T02:54:45.750Z,99545.83
2023-03-15T02:57:16.687Z,99537.73
2023-03-15T02:59:45.537Z,99542.36
2023-03-15T03:02:14.144Z,99548.07
2023-03-15T03:04:42.706Z,99552.02
2023-03-15T03:07:11.170Z,99556.52
2023-03-15T03:09:39.467Z,99553.29
2023-03-15T03:12:08.300Z,99555.23
2023-03-15T03:14:36.666Z,99558.05
2023-03-15T03:17:05.052Z,99566.39
2023-03-15T03:19:33.375Z,99570.55
2023-03-15T03:22:01.676Z,99572.95
2023-03-15T03:24:30.201Z,99586.77
2023-03-15T03:26:58.615Z,99588.60
2023-03-15T03:29:27.087Z,99584.19
2023-03-15T03:31:55.456Z,99588.75
2023-03-15T03:34:23.908Z,99591.40
2023-03-15T03:36:52.347Z,99596.45
2023-03-15T03:39:20.662Z,99598.73
2023-03-15T03:41:49.935Z,99608.91
2023-03-15T03:44:18.500Z,99610.31
2023-03-15T03:46:46.790Z,99616.56
2023-03-15T03:49:15.149Z,99622.78
2023-03-15T03:51:43.426Z,99622.33
2023-03-15T03:54:11.809Z,99616.02
2023-03-15T03:56:40.244Z,99613.14
2023-03-15T03:59:08.674Z,99614.77
2023-03-15T04:01:37.012Z,99629.70
2023-03-15T04:04:06.545Z,99627.92
2023-03-15T04:06:35.394Z,99627.33
2023-03-15T04:17:19.901Z,99619.81
2023-03-15T04:19:48.256Z,99616.66
2023-03-15T04:22:16.590Z,99617.43
2023-03-15T04:24:44.931Z,99623.39
2023-03-15T04:27:14.788Z,99629.41
2023-03-15T04:29:45.198Z,99637.16
2023-03-15T04:32:13.652Z,99647.27
2023-03-15T04:34:42.137Z,99661.03
2023-03-15T04:37:10.706Z,99669.30
2023-03-15T04:39:39.160Z,99674.44
2023-03-15T04:42:07.809Z,99677.80
2023-03-15T04:44:36.580Z,99683.41
2023-03-15T04:47:05.057Z,99687.50
2023-03-15T04:49:33.597Z,99693.11
2023-03-15T04:52:01.951Z,99698.52
2023-03-15T04:54:30.452Z,99696.52
2023-03-15T04:56:58.746Z,99697.80
2023-03-15T04:59:27.055Z,99702.67
2023-03-15T05:01:55.442Z,99708.08
2023-03-15T05:04:23.914Z,99710.05
2023-03-15T05:06:52.285Z,99715.91
2023-03-15T05:09:22.068Z,99717.05
2023-03-15T05:11:51.096Z,99715.05
2023-03-15T05:14:19.457Z,99716.13
2023-03-15T05:16:49.166Z,99711.91
2023-03-15T05:19:17.529Z,99712.64
2023-03-15T05:21:45.819Z,99717.02
2023-03-15T05:24:14.613Z,99717.91
2023-03-15T05:26:46.520Z,99720.33
2023-03-15T05:29:15.653Z,99724.48
2023-03-15T05:31:44.085Z,99733.21
2023-03-15T05:34:12.395Z,99739.91
2023-03-15T05:36:41.888Z,99748.30
2023-03-15T05:39:11.663Z,99755.27
2023-03-15T05:41:39.970Z,99766.41
2023-03-15T05:44:08.298Z,99769.59
2023-03-15T05:46:36.837Z,99770.75
2023-03-15T05:49:05.174Z,99771.71
2023-03-15T05:51:33.517Z,99775.23
2023-03-15T05:54:01.913Z,99777.37
2023-03-15T05:56:30.242Z,99780.89
2023-03-15T05:58:58.683Z,99784.05
2023-03-15T06:01:27.051Z,99787.39
2023-03-15T06:03:55.383Z,99790.34
2023-03-15T06:06:23.723Z,99797.93
2023-03-15T06:08:52.017Z,99798.30
2023-03-15T06:11:20.643Z,99795.92
2023-03-15T06:13:48.920Z,99792.48
2023-03-15T06:16:17.286Z,99793.52
2023-03-15T06:18:45.674Z,99806.09
2023-03-15T06:21:14.069Z,99807.65
2023-03-15T06:23:42.596Z,99803.85
2023-03-15T06:26:11.144Z,99803.33
2023-03-15T06:28:39.448Z,99806.61
2023-03-15T06:31:15.401Z,99808.27
2023-03-15T06:33:43.768Z,99808.75
2023-03-15T06:36:12.679Z,99818.66
2023-03-15T06:38:42.069Z,99819.27
2023-03-15T06:41:12.511Z,99815.88
2023-03-15T06:43:41.142Z,99821.13
2023-03-15T06:46:09.622Z,99829.82
2023-03-15T06:48:37.998Z,99839.32
2023-03-15T06:51:06.634Z,99843.07
2023-03-15T06:53:35.054Z,99851.13
2023-03-15T06:56:03.610Z,99859.83
2023-03-15T06:58:32.019Z,99864.05
2023-03-15T07:01:00.472Z,99858.98
2023-03-15T07:03:28.952Z,99866.30
2023-03-15T07:05:57.407Z,99870.70
2023-03-15T07:08:25.863Z,99874.70
2023-03-15T07:10:54.344Z,99880.81
2023-03-15T07:13:23.500Z,99878.40
2023-03-15T07:15:56.570Z,99885.31
2023-03-15T07:18:25.013Z,99897.45
2023-03-15T07:21:03.093Z,99888.63
2023-03-15T07:23:31.751Z,99898.08
2023-03-15T07:26:00.666Z,99903.40
2023-03-15T07:28:29.565Z,99908.04
2023-03-15T07:31:00.169Z,99908.27
2023-03-15T07:33:31.401Z,99905.96
2023-03-15T07:36:00.475Z,99918.17
2023-03-15T07:38:28.957Z,99918.55
2023-03-15T07:40:58.232Z,99917.81
2023-03-15T07:43:26.706Z,99923.70
2023-03-15T07:45:55.540Z,99924.47
2023-03-15T07:48:24.007Z,99921.45
2023-03-15T07:50:52.624Z,99924.57
2023-03-15T07:53:21.022Z,99918.73
2023-03-15T07:55:49.760Z,99920.77
2023-03-15T07:58:20.287Z,99924.87
2023-03-15T08:00:48.778Z,99928.89
2023-03-15T08:03:17.660Z,99928.26
2023-03-15T08:05:45.980Z,99931.54
2023-03-15T08:08:14.308Z,99936.63
2023-03-15T08:10:44.562Z,99942.48
2023-03-15T08:13:13.924Z,99942.65
2023-03-15T08:15:47.014Z,99948.27
2023-03-15T08:18:15.492Z,99955.71
2023-03-15T08:20:44.064Z,99955.30
2023-03-15T08:23:16.301Z,99967.27
2023-03-15T08:25:45.325Z,99973.85
2023-03-15T08:28:14.365Z,99979.07
2023-03-15T08:30:42.771Z,99986.34
2023-03-15T08:33:18.468Z,99992.30
2023-03-15T08:35:54.850Z,99987.41
2023-03-15T08:38:23.280Z,99994.63
2023-03-15T08:40:57.128Z,100002.80
2023-03-15T08:43:25.797Z,99998.20
2023-03-15T08:46:00.993Z,100005.12
2023-03-15T08:48:31.663Z,100007.61
2023-03-15T08:51:08.950Z,100016.90
2023-03-15T08:53:38.400Z,100016.93
2023-03-15T08:56:13.766Z,100020.60
2023-03-15T08:58:57.863Z,100023.17
2023-03-15T09:07:06.142Z,100029.00
2023-03-15T09:09:34.746Z,100026.58
2023-03-15T09:12:03.327Z,100024.91
2023-03-15T09:14:31.608Z,100024.42
2023-03-15T09:16:59.998Z,100032.13
2023-03-15T09:19:33.124Z,100030.38
2023-03-15T09:22:16.090Z,100022.52
2023-03-15T09:24:40.786Z,100029.70
2023-03-15T09:27:11.779Z,100030.24
2023-03-15T09:29:40.451Z,100027.30
2023-03-15T09:32:09.251Z,100030.93
2023-03-15T09:34:41.984Z,100029.40
2023-03-15T09:37:10.643Z,100027.44
2023-03-15T09:39:38.934Z,100021.88
2023-03-15T09:46:00.587Z,100020.40
2023-03-15T09:49:01.178Z,100022.16
2023-03-15T09:55:14.176Z,100030.55
2023-03-15T09:58:11.349Z,100026.89
2023-03-15T10:00:56.736Z,100023.69
2023-03-15T10:03:44.021Z,100027.99
2023-03-15T10:06:38.056Z,100029.01
2023-03-15T10:09:26.888Z,100028.09
2023-03-15T10:12:22.509Z,100018.55
2023-03-15T10:15:06.140Z,100030.46
2023-03-15T10:17:51.101Z,100028.48
2023-03-15T10:20:35.969Z,100026.89
2023-03-15T10:26:00.919Z,100032.43
2023-03-15T10:28:34.805Z,100033.42
2023-03-15T10:31:41.435Z,100032.73
2023-03-15T10:34:15.082Z,100020.04
2023-03-15T10:36:50.003Z,100021.02
2023-03-15T10:39:19.336Z,100028.22
2023-03-15T10:41:50.665Z,100030.88
2023-03-15T10:44:27.114Z,100030.59
2023-03-15T10:47:07.035Z,100033.52
2023-03-15T10:49:41.546Z,100032.52
2023-03-15T10:52:31.801Z,100031.01
2023-03-15T10:55:11.708Z,100035.55
2023-03-15T10:58:02.030Z,100030.44
2023-03-15T11:00:36.401Z,100029.74
2023-03-15T11:03:26.294Z,100028.58
2023-03-15T11:05:59.647Z,100025.67
2023-03-15T11:08:42.260Z,100030.38
2023-03-15T11:11:11.148Z,100035.43
2023-03-15T11:13:41.908Z,100033.52
2023-03-15T11:16:13.077Z,100027.23
2023-03-15T11:18:44.217Z,100030.67
2023-03-15T11:21:16.120Z,100025.92
2023-03-15T11:23:48.928Z,100024.26
2023-03-15T11:26:49.741Z,100016.66
2023-03-15T11:29:26.793Z,100021.52
2023-03-15T11:31:56.871Z,100016.54
2023-03-15T11:34:55.553Z,100027.20
2023-03-15T11:37:33.419Z,100035.91
2023-03-15T11:49:41.032Z,100034.73
2023-03-15T11:52:10.807Z,100034.20
2023-03-15T11:54:39.214Z,100036.13
2023-03-15T11:57:44.200Z,100034.80
2023-03-15T12:00:21.921Z,100035.84
2023-03-15T12:02:57.833Z,100031.53
2023-03-15T12:05:55.264Z,100028.28
2023-03-15T12:08:35.569Z,100025.64
2023-03-15T12:11:20.794Z,100024.98
2023-03-15T12:13:58.326Z,100027.08
2023-03-15T12:16:31.017Z,100032.76
2023-03-15T12:21:58.741Z,100027.94
2023-03-15T12:24:36.255Z,100026.16
2023-03-15T12:27:37.273Z,100029.09
2023-03-15T12:30:15.208Z,100030.68
2023-03-15T12:32:50.268Z,100028.58
2023-03-15T12:35:22.709Z,100020.88
2023-03-15T12:37:53.807Z,100018.91
2023-03-15T12:40:22.945Z,100022.73
2023-03-15T12:42:54.833Z,100019.13
2023-03-15T12:45:37.838Z,100024.48
2023-03-15T12:48:06.664Z,100026.91
2023-03-15T12:50:44.295Z,100026.50
2023-03-15T12:53:39.737Z,100025.40
2023-03-15T12:59:55.300Z,100034.16
2023-03-15T13:06:11.170Z,100031.67
2023-03-15T13:09:13.630Z,100034.23
2023-03-15T13:12:15.448Z,100040.64
2023-03-15T13:15:18.094Z,100043.50
2023-03-15T13:17:56.328Z,100044.84
2023-03-15T13:21:06.550Z,100053.41
2023-03-15T13:23:35.349Z,100053.59
2023-03-15T13:26:33.392Z,100056.79
2023-03-15T13:29:07.884Z,100056.91
2023-03-15T13:31:37.950Z,100055.23
2023-03-15T13:34:24.254Z,100057.51
2023-03-15T13:37:02.121Z,100060.65
2023-03-15T13:39:34.455Z,100064.50
2023-03-15T13:42:40.729Z,100069.92
2023-03-15T13:45:09.094Z,100071.21
2023-03-15T13:47:39.428Z,100073.05
2023-03-15T13:50:12.732Z,100071.12
2023-03-15T13:52:42.591Z,100074.56
2023-03-15T13:55:20.690Z,100084.44
2023-03-15T13:57:57.348Z,100089.04
2023-03-15T14:00:27.100Z,100087.60
2023-03-15T14:03:00.564Z,100089.23
2023-03-15T14:08:29.922Z,100098.75
2023-03-15T14:11:10.104Z,100098.42
2023-03-15T14:14:02.611Z,100103.54
2023-03-15T14:17:03.051Z,100103.72
2023-03-15T14:19:56.822Z,100101.16
2023-03-15T14:22:25.357Z,100105.44
2023-03-15T14:24:53.740Z,100100.66
2023-03-15T14:27:27.565Z,100099.82
2023-03-15T14:30:02.395Z,100097.95
2023-03-15T14:32:35.403Z,100097.19
2023-03-15T14:38:21.593Z,100104.52
2023-03-15T14:40:52.644Z,100104.60
2023-03-15T14:43:21.269Z,100104.38
2023-03-15T14:45:49.746Z,100100.95
2023-03-15T14:48:32.263Z,100099.94
2023-03-15T14:51:00.980Z,100101.87
2023-03-15T14:53:37.160Z,100094.93
2023-03-15T14:56:06.179Z,100098.58
2023-03-15T14:58:34.527Z,100096.16
2023-03-15T15:01:03.772Z,100095.94
2023-03-15T15:06:32.281Z,100091.89
2023-03-15T15:09:02.865Z,100091.79
2023-03-15T15:11:31.625Z,100094.14
2023-03-15T15:14:00.002Z,100104.92
2023-03-15T15:16:28.464Z,100102.92
2023-03-15T15:18:56.829Z,100103.10
2023-03-15T15:21:33.817Z,100102.56
2023-03-15T15:24:13.521Z,100104.66
2023-03-15T15:26:42.697Z,100107.04
2023-03-15T15:29:16.382Z,100109.77
2023-03-15T15:31:46.130Z,100118.30
2023-03-15T15:34:14.982Z,100124.35
2023-03-15T15:36:45.130Z,100129.77
2023-03-15T15:39:22.846Z,100135.77
2023-03-15T15:41:51.153Z,100137.68
2023-03-15T15:44:22.955Z,100144.23
2023-03-15T15:46:51.884Z,100151.27
2023-03-15T15:49:21.123Z,100152.77
2023-03-15T15:51:50.225Z,100155.95
2023-03-15T15:54:22.883Z,100153.78
2023-03-15T15:59:46.857Z,100156.05
2023-03-15T16:02:22.219Z,100159.30
2023-03-15T16:04:51.365Z,100166.15
2023-03-15T16:10:27.701Z,100171.91
2023-03-15T16:12:57.923Z,100172.96
2023-03-15T16:18:59.816Z,100178.14
2023-03-15T16:22:10.877Z,100184.98
2023-03-15T16:24:45.367Z,100188.41
2023-03-15T16:27:17.324Z,100190.10
2023-03-15T16:29:48.756Z,100192.33
2023-03-15T16:32:29.799Z,100195.37
2023-03-15T16:35:02.535Z,100199.21
2023-03-15T16:37:32.712Z,100202.26
2023-03-15T16:40:01.788Z,100204.39
2023-03-15T16:42:30.411Z,100202.34
2023-03-15T16:44:58.868Z,100208.64
2023-03-15T16:47:27.289Z,100213.52
2023-03-15T16:49:55.593Z,100216.77
2023-03-15T16:52:23.982Z,100221.09
2023-03-15T16:55:30.314Z,100222.11
2023-03-15T16:58:03.114Z,100231.59
2023-03-15T17:00:31.770Z,100235.58
2023-03-15T17:19:52.921Z,100262.27
2023-03-15T17:22:23.174Z,100265.84
2023-03-15T17:24:51.653Z,100265.30
2023-03-15T17:27:43.740Z,100261.59
2023-03-15T17:30:31.192Z,100265.21
2023-03-15T17:33:00.210Z,100270.58
2023-03-15T17:35:36.218Z,100271.66
2023-03-15T17:38:07.339Z,100278.39
2023-03-15T17:40:36.450Z,100278.23
2023-03-15T17:43:05.065Z,100278.74
2023-03-15T17:45:34.955Z,100276.73
2023-03-15T17:48:04.316Z,100280.84
2023-03-15T17:50:34.753Z,100283.65
2023-03-15T17:53:21.195Z,100285.75
2023-03-15T17:55:49.871Z,100289.24
2023-03-15T17:58:21.558Z,100289.43
2023-03-15T18:00:52.618Z,100294.95
2023-03-15T18:03:22.503Z,100300.17
2023-03-15T18:05:51.105Z,100308.75
2023-03-15T18:08:21.418Z,100313.16
2023-03-15T18:10:51.525Z,100313.81
2023-03-15T18:13:22.085Z,100314.58
2023-03-15T18:15:51.565Z,100316.91
2023-03-15T18:18:20.676Z,100321.91
2023-03-15T18:20:49.603Z,100323.65
2023-03-15T18:23:18.680Z,100321.41
2023-03-15T18:25:47.117Z,100317.25
2023-03-15T18:28:15.512Z,100322.05
2023-03-15T18:30:44.805Z,100321.67
2023-03-15T18:33:15.622Z,100321.77
2023-03-15T18:35:44.115Z,100324.47
2023-03-15T18:38:13.022Z,100329.56
2023-03-15T18:40:46.046Z,100331.39
2023-03-15T18:43:15.048Z,100337.16
2023-03-15T18:48:59.314Z,100342.83
2023-03-15T18:51:30.729Z,100349.56
2023-03-15T18:53:59.062Z,100352.66
2023-03-15T18:59:39.543Z,100360.11
2023-03-15T19:02:09.370Z,100357.73
2023-03-15T19:04:38.297Z,100363.39
2023-03-15T19:07:06.568Z,100362.54
2023-03-15T19:09:34.910Z,100366.50
2023-03-15T19:12:03.285Z,100369.44
2023-03-15T19:14:31.793Z,100371.16
2023-03-15T19:17:00.308Z,100376.52
2023-03-15T19:19:29.374Z,100374.45
2023-03-15T19:21:57.802Z,100377.95
2023-03-15T19:24:26.155Z,100377.27
2023-03-15T19:26:54.554Z,100381.05
2023-03-15T19:29:22.857Z,100381.59
2023-03-15T19:32:05.033Z,100384.86
2023-03-15T19:34:33.497Z,100389.70
2023-03-15T19:37:01.948Z,100399.48
2023-03-15T19:39:30.646Z,100404.05
2023-03-15T19:41:58.935Z,100405.66
2023-03-15T19:44:28.056Z,100410.16
2023-03-15T19:46:56.952Z,100410.73
2023-03-15T19:49:25.414Z,100414.26
2023-03-15T19:51:53.821Z,100415.30
2023-03-15T19:54:22.172Z,100418.14
2023-03-15T19:56:50.953Z,100420.97
2023-03-15T19:59:26.952Z,100425.98
2023-03-15T20:01:55.482Z,100426.59
2023-03-15T20:04:23.865Z,100429.73
2023-03-15T20:07:22.302Z,100430.63
2023-03-15T20:09:50.633Z,100433.60
2023-03-15T20:12:42.823Z,100432.73
2023-03-15T20:15:14.305Z,100436.15
2023-03-15T20:17:43.149Z,100434.95
2023-03-15T20:20:13.966Z,100437.80
2023-03-15T20:22:44.652Z,100438.58
2023-03-15T20:25:18.241Z,100437.83
2023-03-15T20:27:47.438Z,100442.39
2023-03-15T20:30:18.582Z,100445.23
2023-03-15T20:32:56.938Z,100445.30
2023-03-15T20:35:25.828Z,100449.57
2023-03-15T20:41:14.291Z,100464.96
2023-03-15T20:43:43.113Z,100465.44
2023-03-15T20:46:13.556Z,100469.13
2023-03-15T20:48:42.178Z,100469.93
2023-03-15T20:51:11.804Z,100468.14
2023-03-15T20:53:55.945Z,100467.23
2023-03-15T20:56:34.787Z,100472.35
2023-03-15T21:08:09.953Z,100485.98
2023-03-15T21:10:39.039Z,100488.85
2023-03-15T21:13:10.096Z,100489.11
2023-03-15T21:15:46.108Z,100493.39
2023-03-15T21:18:16.873Z,100490.96
2023-03-15T21:20:45.406Z,100491.44
2023-03-15T21:23:13.736Z,100494.65
2023-03-15T21:25:42.062Z,100496.98
2023-03-15T21:28:10.564Z,100499.14
2023-03-15T21:30:38.985Z,100503.02
2023-03-15T21:33:14.202Z,100498.77
2023-03-15T21:35:45.721Z,100500.23
2023-03-15T21:38:14.569Z,100503.90
2023-03-15T21:40:48.180Z,100506.55
2023-03-15T21:43:16.523Z,100508.32
2023-03-15T21:45:45.006Z,100514.09
2023-03-15T21:48:13.452Z,100518.45
2023-03-15T21:50:41.763Z,100524.73
2023-03-15T21:53:10.239Z,100528.10
2023-03-15T21:55:38.638Z,100527.19
2023-03-15T21:58:07.015Z,100528.98
2023-03-15T22:00:35.487Z,100536.95
2023-03-15T22:03:06.041Z,100539.95
2023-03-15T22:05:38.326Z,100543.69
2023-03-15T22:08:06.935Z,100542.56
2023-03-15T22:10:35.343Z,100545.88
2023-03-15T22:13:03.681Z,100546.12
2023-03-15T22:15:33.870Z,100548.41
2023-03-15T22:18:02.831Z,100550.21
2023-03-15T22:20:31.255Z,100550.40
2023-03-15T22:22:59.592Z,100554.24
2023-03-15T22:25:27.976Z,100552.56
2023-03-15T22:27:56.377Z,100557.59
2023-03-15T22:30:25.083Z,100558.18
2023-03-15T22:32:54.256Z,100565.80
2023-03-15T22:35:23.391Z,100565.87
2023-03-15T22:37:56.948Z,100561.14
2023-03-15T22:40:28.105Z,100562.79
2023-03-15T22:42:57.575Z,100563.36
2023-03-15T22:45:26.128Z,100564.30
2023-03-15T22:47:54.694Z,100566.09
2023-03-15T22:50:23.731Z,100569.10
2023-03-15T22:52:52.512Z,100570.03
2023-03-15T22:55:21.562Z,100567.54
2023-03-15T22:57:49.935Z,100566.03
2023-03-15T23:00:45.037Z,100566.81
2023-03-15T23:03:13.437Z,100572.54
2023-03-15T23:05:42.532Z,100573.63
2023-03-15T23:08:11.197Z,100574.21
2023-03-15T23:10:41.957Z,100580.80
2023-03-15T23:13:10.399Z,100580.88
2023-03-15T23:15:39.191Z,100581.77
2023-03-15T23:18:08.129Z,100579.77
2023-03-15T23:20:37.602Z,100578.80
2023-03-15T23:23:06.003Z,100580.24
2023-03-15T23:25:38.909Z,100582.00
2023-03-15T23:28:07.781Z,100587.02
2023-03-15T23:30:36.543Z,100592.56
2023-03-15T23:33:05.049Z,100596.23
2023-03-15T23:35:33.426Z,100590.98
2023-03-15T23:38:01.881Z,100596.84
2023-03-15T23:40:30.346Z,100593.95
2023-03-15T23:42:59.307Z,100596.73
2023-03-15T23:45:30.065Z,100597.80
2023-03-15T23:47:58.781Z,100602.61
2023-03-15T23:50:27.669Z,100610.72
2023-03-15T23:52:56.574Z,100608.35
2023-03-15T23:55:25.010Z,100609.06
2023-03-15T23:57:53.364Z,100610.48
